createdAt,value
2019-02-04T00:01:23.943Z,2.77
2019-02-04T00:06:41.899Z,3.00
2019-02-04T00:11:59.132Z,2.60
2019-02-04T00:17:16.281Z,2.80
2019-02-04T00:22:33.788Z,3.73
2019-02-04T00:27:51.137Z,2.73
2019-02-04T00:33:08.368Z,3.60
2019-02-04T00:38:25.573Z,2.40
2019-02-04T00:43:42.360Z,3.07
2019-02-04T00:48:59.263Z,2.50
2019-02-04T00:54:16.279Z,3.40
2019-02-04T00:59:33.000Z,2.30
2019-02-04T01:04:49.886Z,2.27
2019-02-04T01:10:06.656Z,2.17
2019-02-04T01:15:23.635Z,2.37
2019-02-04T01:20:40.857Z,2.43
2019-02-04T01:25:58.072Z,1.80
2019-02-04T01:31:15.281Z,2.27
2019-02-04T01:36:32.433Z,2.37
2019-02-04T01:41:49.896Z,2.60
2019-02-04T01:47:14.429Z,2.47
2019-02-04T01:52:26.338Z,1.97
2019-02-04T01:57:43.621Z,2.37
2019-02-04T02:03:00.515Z,3.33
2019-02-04T02:08:17.726Z,3.43
2019-02-04T02:13:35.417Z,3.30
2019-02-04T02:18:52.450Z,3.10
2019-02-04T02:24:09.657Z,2.53
2019-02-04T02:29:27.134Z,2.80
2019-02-04T02:34:44.242Z,2.30
2019-02-04T02:40:02.409Z,2.90
2019-02-04T02:45:19.965Z,2.73
2019-02-04T02:50:37.328Z,2.20
2019-02-04T02:55:54.289Z,2.57
2019-02-04T03:01:11.898Z,2.70
2019-02-04T03:06:28.934Z,3.20
2019-02-04T03:11:45.775Z,3.37
2019-02-04T03:17:02.901Z,3.00
2019-02-04T03:22:20.402Z,2.63
2019-02-04T03:27:38.107Z,2.57
2019-02-04T03:32:55.488Z,2.23
2019-02-04T03:38:12.374Z,2.67
2019-02-04T03:43:29.776Z,2.53
2019-02-04T03:48:47.019Z,2.40
2019-02-04T03:54:04.672Z,2.77
2019-02-04T03:59:22.228Z,3.17
2019-02-04T04:04:39.425Z,2.80
2019-02-04T04:09:57.087Z,2.30
2019-02-04T04:15:14.352Z,1.57
2019-02-04T04:20:31.551Z,2.00
2019-02-04T04:25:48.941Z,2.37
2019-02-04T04:31:06.663Z,2.27
2019-02-04T04:36:23.826Z,2.33
2019-02-04T04:41:41.058Z,2.43
2019-02-04T04:46:58.072Z,2.17
2019-02-04T04:52:15.136Z,2.60
2019-02-04T04:57:32.199Z,2.13
2019-02-04T05:02:48.997Z,3.47
2019-02-04T05:08:05.993Z,3.27
2019-02-04T05:13:22.847Z,2.40
2019-02-04T05:18:39.836Z,2.63
2019-02-04T05:23:57.098Z,2.30
2019-02-04T05:29:14.064Z,3.03
2019-02-04T05:34:31.397Z,1.90
2019-02-04T05:39:48.614Z,3.07
2019-02-04T05:45:06.190Z,3.00
2019-02-04T05:50:23.658Z,2.67
2019-02-04T05:55:41.394Z,2.70
2019-02-04T06:00:58.805Z,2.43
2019-02-04T06:06:16.467Z,2.63
2019-02-04T06:11:33.679Z,2.90
2019-02-04T06:16:51.361Z,2.77
2019-02-04T06:22:08.365Z,2.87
2019-02-04T06:27:25.253Z,2.00
2019-02-04T06:32:42.417Z,2.80
2019-02-04T06:37:59.478Z,0.93
2019-02-04T06:43:16.715Z,1.13
2019-02-04T06:48:34.156Z,1.67
2019-02-04T06:53:51.647Z,1.10
2019-02-04T06:59:08.518Z,1.50
2019-02-04T07:04:25.357Z,1.53
2019-02-04T07:09:42.256Z,1.27
2019-02-04T07:14:59.290Z,1.37
2019-02-04T07:20:16.393Z,1.37
2019-02-04T07:25:33.547Z,1.40
2019-02-04T07:30:51.602Z,1.63
2019-02-04T07:36:09.897Z,1.17
2019-02-04T07:41:27.427Z,1.30
2019-02-04T07:46:44.519Z,1.30
2019-02-04T07:52:01.647Z,1.60
2019-02-04T07:57:18.807Z,1.30
2019-02-04T08:02:35.792Z,1.90
2019-02-04T08:07:52.516Z,1.40
2019-02-04T08:13:10.107Z,1.70
2019-02-04T08:18:27.220Z,1.23
2019-02-04T08:23:44.319Z,1.23
2019-02-04T08:29:02.046Z,2.37
2019-02-04T08:34:18.961Z,2.15
2019-02-04T08:39:35.882Z,2.37
2019-02-04T08:44:52.720Z,1.87
2019-02-04T08:50:10.329Z,1.50
2019-02-04T08:55:27.959Z,1.00
2019-02-04T09:00:45.323Z,1.53
2019-02-04T09:06:02.270Z,0.67
2019-02-04T09:11:19.426Z,1.17
2019-02-04T09:16:37.017Z,0.90
2019-02-04T09:21:54.049Z,1.20
2019-02-04T09:27:11.739Z,0.60
2019-02-04T09:32:28.597Z,1.10
2019-02-04T09:37:46.256Z,1.00
2019-02-04T09:43:03.454Z,1.13
2019-02-04T09:48:20.335Z,0.70
2019-02-04T09:53:37.571Z,0.70
2019-02-04T09:58:55.042Z,0.70
2019-02-04T10:04:12.141Z,0.70
2019-02-04T10:09:28.964Z,1.10
2019-02-04T10:14:45.854Z,1.00
2019-02-04T10:20:02.983Z,1.23
2019-02-04T10:25:20.074Z,0.53
2019-02-04T10:30:37.554Z,0.80
2019-02-04T10:35:55.245Z,1.07
2019-02-04T10:41:12.611Z,1.13
2019-02-04T10:46:29.444Z,0.93
2019-02-04T10:51:46.934Z,1.37
2019-02-04T10:57:03.874Z,0.90
2019-02-04T11:02:20.944Z,1.20
2019-02-04T11:07:37.774Z,0.93
2019-02-04T11:12:54.685Z,1.30
2019-02-04T11:18:11.567Z,1.13
2019-02-04T11:23:29.229Z,1.07
2019-02-04T11:28:46.561Z,1.20
2019-02-04T11:34:03.610Z,1.10
2019-02-04T11:39:20.539Z,0.83
2019-02-04T11:44:37.546Z,1.10
2019-02-04T11:49:54.881Z,0.70
2019-02-04T11:55:11.828Z,0.97
2019-02-04T12:00:29.025Z,1.13
2019-02-04T12:05:45.910Z,1.07
2019-02-04T12:11:02.910Z,1.03
2019-02-04T12:16:19.747Z,0.70
2019-02-04T12:21:37.166Z,1.00
2019-02-04T12:26:54.669Z,1.30
2019-02-04T12:32:11.884Z,1.00
2019-02-04T12:37:28.712Z,1.30
2019-02-04T12:42:46.443Z,1.13
2019-02-04T12:48:03.487Z,1.03
2019-02-04T12:53:20.594Z,1.43
2019-02-04T12:58:37.759Z,1.00
2019-02-04T13:03:54.981Z,0.93
2019-02-04T13:09:11.777Z,1.10
2019-02-04T13:14:28.917Z,1.13
2019-02-04T13:19:45.734Z,1.00
2019-02-04T13:25:02.608Z,1.13
2019-02-04T13:30:19.928Z,1.13
2019-02-04T13:35:37.405Z,0.90
2019-02-04T13:40:54.811Z,0.90
2019-02-04T13:46:12.015Z,1.10
2019-02-04T13:51:30.449Z,1.10
2019-02-04T13:56:48.082Z,0.93
2019-02-04T14:02:05.008Z,1.20
2019-02-04T14:07:21.993Z,1.00
2019-02-04T14:12:38.931Z,1.10
2019-02-04T14:17:56.425Z,0.80
2019-02-04T14:23:13.662Z,1.43
2019-02-04T14:28:31.528Z,0.90
2019-02-04T14:33:49.277Z,1.40
2019-02-04T14:39:06.891Z,1.57
2019-02-04T14:44:24.407Z,1.10
2019-02-04T14:49:41.278Z,0.97
2019-02-04T14:54:58.428Z,1.33
2019-02-04T15:00:15.641Z,1.70
2019-02-04T15:05:33.350Z,1.27
2019-02-04T15:10:51.138Z,1.23
2019-02-04T15:16:08.841Z,1.53
2019-02-04T15:21:26.478Z,1.50
2019-02-04T15:26:43.576Z,1.30
2019-02-04T15:32:00.752Z,1.87
2019-02-04T15:37:18.047Z,1.70
2019-02-04T15:42:35.204Z,1.80
2019-02-04T15:47:52.116Z,2.73
2019-02-04T15:53:09.522Z,1.67
2019-02-04T15:58:26.698Z,1.97
2019-02-04T16:03:43.918Z,2.20
2019-02-04T16:09:01.514Z,3.43
2019-02-04T16:14:18.987Z,2.62
2019-02-04T16:19:36.451Z,2.47
2019-02-04T16:24:53.684Z,2.13
2019-02-04T16:30:10.973Z,3.50
2019-02-04T16:35:28.244Z,3.08
2019-02-04T16:40:45.386Z,2.70
2019-02-04T16:46:02.938Z,2.70
2019-02-04T16:51:20.154Z,3.43
2019-02-04T16:56:37.594Z,3.33
2019-02-04T17:01:55.174Z,4.00
2019-02-04T17:07:12.378Z,3.80
2019-02-04T17:12:30.209Z,5.03
2019-02-04T17:17:46.978Z,4.60
2019-02-04T17:23:04.371Z,5.33
2019-02-04T17:28:21.616Z,5.70
2019-02-04T17:33:38.651Z,8.68
2019-02-04T17:38:56.399Z,8.07
2019-02-04T17:44:14.207Z,5.40
2019-02-04T17:49:31.592Z,7.37
2019-02-04T17:54:48.474Z,6.87
2019-02-04T18:00:06.883Z,6.30
2019-02-04T18:05:24.659Z,6.63
2019-02-04T18:10:41.664Z,6.83
2019-02-04T18:15:58.440Z,6.97
2019-02-04T18:21:15.987Z,8.20
2019-02-04T18:26:33.555Z,11.67
2019-02-04T18:31:50.941Z,10.15
2019-02-04T18:37:08.098Z,7.23
2019-02-04T18:42:25.323Z,9.47
2019-02-04T18:47:42.314Z,9.93
2019-02-04T18:52:59.696Z,13.20
2019-02-04T18:58:16.420Z,13.10
2019-02-04T19:03:33.611Z,10.80
2019-02-04T19:08:50.542Z,10.63
2019-02-04T19:14:07.705Z,11.67
2019-02-04T19:19:24.769Z,13.43
2019-02-04T19:24:42.271Z,13.37
2019-02-04T19:29:59.803Z,13.50
2019-02-04T19:35:16.847Z,11.87
2019-02-04T19:40:33.793Z,11.73
2019-02-04T19:45:51.123Z,12.47
2019-02-04T19:51:08.157Z,12.80
2019-02-04T19:56:25.422Z,14.70
2019-02-04T20:01:42.355Z,14.70
2019-02-04T20:06:59.627Z,14.57
2019-02-04T20:12:17.375Z,15.43
2019-02-04T20:17:34.398Z,15.40
2019-02-04T20:22:51.806Z,16.20
2019-02-04T20:28:09.142Z,15.17
2019-02-04T20:33:26.146Z,13.40
2019-02-04T20:38:43.102Z,14.77
2019-02-04T20:44:00.681Z,15.50
2019-02-04T20:49:18.050Z,15.60
2019-02-04T20:54:44.740Z,14.90
2019-02-04T20:59:53.838Z,15.10
2019-02-04T21:05:10.737Z,14.97
2019-02-04T21:10:27.923Z,15.70
2019-02-04T21:15:45.372Z,15.93
2019-02-04T21:21:02.306Z,15.90
2019-02-04T21:26:19.484Z,15.73
2019-02-04T21:31:36.965Z,14.33
2019-02-04T21:36:54.149Z,15.70
2019-02-04T21:42:11.223Z,17.57
2019-02-04T21:47:28.578Z,17.53
2019-02-04T21:52:45.655Z,16.70
2019-02-04T21:58:03.557Z,17.77
2019-02-04T22:03:20.742Z,17.43
2019-02-04T22:08:37.887Z,16.63
2019-02-04T22:13:55.101Z,12.13
2019-02-04T22:19:12.067Z,10.37
2019-02-04T22:24:29.190Z,12.00
2019-02-04T22:29:46.880Z,11.10
2019-02-04T22:35:04.071Z,10.47
2019-02-04T22:40:21.164Z,10.23
2019-02-04T22:45:39.299Z,10.63
2019-02-04T22:50:56.852Z,11.87
2019-02-04T22:56:14.858Z,14.77
2019-02-04T23:01:32.560Z,14.70
2019-02-04T23:06:50.255Z,16.30
2019-02-04T23:12:07.670Z,17.30
2019-02-04T23:17:26.290Z,18.27
2019-02-04T23:22:45.785Z,18.97
2019-02-04T23:28:03.542Z,17.53
2019-02-04T23:33:20.746Z,17.30
2019-02-04T23:38:38.451Z,18.37
2019-02-04T23:43:56.284Z,17.83
2019-02-04T23:49:13.738Z,18.30
2019-02-04T23:54:31.029Z,18.37
2019-02-04T23:59:49.003Z,17.73
